Time;durP1;ratioP1;P1;durP2;ratioP2;P2;SDS_P1;SDS_P2;PMS_P1;PMS_P2;Temp;Humidity;BMP_temperature;BMP_pressure;BME280_temperature;BME280_humidity;BME280_pressure;Samples;Min_cycle;Max_cycle;Signal;HPM_P1;HPM_P2
2021/04/17 04:38:42;;;;;;;3.20;1.58;;;;;;;;;;4973174;28;20051;-77
2021/04/17 04:41:08;;;;;;;3.60;1.45;;;;;;;;;;4976236;28;20030;-77
2021/04/17 04:43:33;;;;;;;2.83;1.42;;;;;;;;;;4967634;28;20027;-77
2021/04/17 04:45:59;;;;;;;4.93;1.50;;;;;;;;;;4982568;28;20098;-78
2021/04/17 04:48:25;;;;;;;4.30;1.80;;;;;;;;;;4981312;28;20109;-77
2021/04/17 04:50:51;;;;;;;5.07;1.88;;;;;;;;;;4984271;28;20122;-77
2021/04/17 04:53:16;;;;;;;3.80;1.70;;;;;;;;;;4972810;28;20031;-77
2021/04/17 04:55:42;;;;;;;4.43;2.10;;;;;;;;;;4983364;28;20035;-78
2021/04/17 04:58:07;;;;;;;13.85;2.72;;;;;;;;;;4989728;23;20011;-82
2021/04/17 05:00:33;;;;;;;3.67;1.60;;;;;;;;;;4982925;28;20038;-81
2021/04/17 05:02:59;;;;;;;3.67;1.52;;;;;;;;;;4986381;28;20034;-81
2021/04/17 05:05:24;;;;;;;4.07;1.85;;;;;;;;;;4977501;28;20021;-81
2021/04/17 05:07:50;;;;;;;3.90;1.77;;;;;;;;;;4982025;28;20090;-80
2021/04/17 05:10:16;;;;;;;4.72;1.90;;;;;;;;;;4977671;28;20053;-81
2021/04/17 05:12:41;;;;;;;3.53;1.75;;;;;;;;;;4981603;28;20090;-81
2021/04/17 05:15:08;;;;;;;3.25;1.55;;;;;;;;;;4980068;28;20102;-82
2021/04/17 05:17:33;;;;;;;5.45;2.25;;;;;;;;;;4976887;28;20049;-81
2021/04/17 05:19:59;;;;;;;3.80;1.48;;;;;;;;;;4975199;28;20033;-80
2021/04/17 05:22:25;;;;;;;4.35;2.38;;;;;;;;;;4979580;28;20025;-81
2021/04/17 05:24:51;;;;;;;6.18;1.80;;;;;;;;;;4979434;28;20023;-83
2021/04/17 05:29:35;;;;;;;3.15;1.50;;;;;;;;;;5135195;27;20352;-83
2021/04/17 05:32:00;;;;;;;3.50;1.65;;;;;;;;;;5076866;28;20043;-83
2021/04/17 05:34:26;;;;;;;3.80;1.60;;;;;;;;;;5084810;28;20099;-83
2021/04/17 05:36:53;;;;;;;3.72;1.90;;;;;;;;;;5080867;28;20025;-84
2021/04/17 05:39:18;;;;;;;4.32;2.00;;;;;;;;;;5078791;28;20028;-81
2021/04/17 05:41:44;;;;;;;4.72;2.00;;;;;;;;;;5070757;28;20031;-82
2021/04/17 05:44:10;;;;;;;4.90;2.63;;;;;;;;;;5075203;28;20095;-80
2021/04/17 05:46:39;;;;;;;5.03;1.88;;;;;;;;;;5077962;28;20209;-83
2021/04/17 05:49:05;;;;;;;7.05;2.58;;;;;;;;;;5079560;28;20472;-85
2021/04/17 05:51:32;;;;;;;7.00;3.38;;;;;;;;;;5075965;28;20079;-85
2021/04/17 05:53:57;;;;;;;4.82;2.22;;;;;;;;;;5070731;28;20048;-85
2021/04/17 05:56:23;;;;;;;5.65;3.33;;;;;;;;;;5071757;28;20057;-85
2021/04/17 06:01:08;;;;;;;4.65;2.67;;;;;;;;;;5153344;27;20345;-86
2021/04/17 06:05:52;;;;;;;5.75;2.58;;;;;;;;;;5111207;27;20340;-86
2021/04/17 06:08:18;;;;;;;5.97;2.97;;;;;;;;;;5108542;28;20031;-86
2021/04/17 06:10:44;;;;;;;4.47;2.58;;;;;;;;;;5109462;28;20111;-86
2021/04/17 06:13:10;;;;;;;4.43;2.22;;;;;;;;;;5120325;27;20015;-85
2021/04/17 06:15:35;;;;;;;7.68;3.95;;;;;;;;;;5120884;28;20114;-84
2021/04/17 06:18:01;;;;;;;5.07;3.45;;;;;;;;;;5114495;28;20103;-85
2021/04/17 06:20:31;;;;;;;5.82;3.30;;;;;;;;;;5117715;28;20023;-85
2021/04/17 06:22:57;;;;;;;5.70;3.33;;;;;;;;;;5120559;28;20057;-85
2021/04/17 06:27:41;;;;;;;8.63;4.10;;;;;;;;;;5113546;27;20377;-86
2021/04/17 06:30:07;;;;;;;9.95;4.88;;;;;;;;;;5097161;28;20030;-87
2021/04/17 06:32:33;;;;;;;9.70;5.45;;;;;;;;;;5098375;28;20046;-87
2021/04/17 06:34:59;;;;;;;7.95;5.10;;;;;;;;;;5101515;28;20111;-87
2021/04/17 06:37:24;;;;;;;8.77;5.13;;;;;;;;;;5093813;28;20465;-87
2021/04/17 06:39:50;;;;;;;9.60;5.22;;;;;;;;;;5091254;28;20028;-87
2021/04/17 06:42:18;;;;;;;9.18;5.07;;;;;;;;;;5091202;28;20012;-87
2021/04/17 06:44:45;;;;;;;9.05;4.88;;;;;;;;;;5088184;28;20024;-88
2021/04/17 06:47:12;;;;;;;9.32;4.90;;;;;;;;;;5093180;28;20012;-87
2021/04/17 06:49:38;;;;;;;6.93;4.13;;;;;;;;;;5081692;28;20060;-87
2021/04/17 06:54:22;;;;;;;8.07;3.95;;;;;;;;;;5108389;27;20339;-88
2021/04/17 06:56:49;;;;;;;7.28;3.95;;;;;;;;;;5103941;28;20032;-88
2021/04/17 06:59:14;;;;;;;7.43;4.60;;;;;;;;;;5103196;28;20102;-88
2021/04/17 07:01:40;;;;;;;8.45;4.30;;;;;;;;;;5099343;28;20509;-88
2021/04/17 07:04:07;;;;;;;6.95;4.00;;;;;;;;;;5097739;28;20029;-88
2021/04/17 07:06:33;;;;;;;5.45;3.53;;;;;;;;;;5097348;28;20035;-87
2021/04/17 07:08:58;;;;;;;4.65;3.33;;;;;;;;;;5099907;28;20024;-87
2021/04/17 07:11:24;;;;;;;7.05;3.60;;;;;;;;;;5094679;28;20749;-88
2021/04/17 07:14:09;;;;;;;9.02;4.00;;;;;;;;;;5098155;28;20069;-88
2021/04/17 07:16:54;;;;;;;7.78;3.85;;;;;;;;;;5079523;28;20033;-88
2021/04/17 07:19:20;;;;;;;8.48;4.25;;;;;;;;;;5100189;28;20058;-88
2021/04/17 07:24:05;;;;;;;7.28;3.70;;;;;;;;;;5084835;28;20349;-88
2021/04/17 07:26:31;;;;;;;6.15;3.42;;;;;;;;;;5062715;28;20031;-88
2021/04/17 07:29:13;;;;;;;6.47;3.33;;;;;;;;;;5063027;28;20425;-88
2021/04/17 07:31:46;;;;;;;9.60;5.00;;;;;;;;;;5060100;28;20012;-88
2021/04/17 07:34:13;;;;;;;5.70;3.67;;;;;;;;;;5054720;28;20038;-88
2021/04/17 07:36:53;;;;;;;6.70;3.88;;;;;;;;;;5054908;28;20016;-88
2021/04/17 07:39:29;;;;;;;7.72;3.95;;;;;;;;;;5062914;28;20411;-88
2021/04/17 07:42:13;;;;;;;7.32;3.60;;;;;;;;;;5074591;28;20090;-88
2021/04/17 07:46:56;;;;;;;5.65;3.75;;;;;;;;;;5106114;27;20354;-88
2021/04/17 07:49:22;;;;;;;7.32;3.38;;;;;;;;;;5103775;28;20476;-87
2021/04/17 07:52:13;;;;;;;6.53;3.65;;;;;;;;;;5094428;28;20020;-88
2021/04/17 07:54:58;;;;;;;6.03;3.03;;;;;;;;;;5095530;28;20034;-89
2021/04/17 07:57:30;;;;;;;9.15;4.18;;;;;;;;;;5122514;28;20016;-90
2021/04/17 07:59:56;;;;;;;7.78;3.58;;;;;;;;;;5100978;28;20028;-88
2021/04/17 08:02:22;;;;;;;6.82;3.58;;;;;;;;;;5096096;28;20016;-88
2021/04/17 08:04:48;;;;;;;6.40;3.35;;;;;;;;;;5099705;28;20017;-88
2021/04/17 08:07:14;;;;;;;7.10;3.90;;;;;;;;;;5100137;28;20020;-88
2021/04/17 08:09:41;;;;;;;7.32;3.60;;;;;;;;;;5098319;28;20563;-88
2021/04/17 08:12:08;;;;;;;7.90;3.35;;;;;;;;;;5095292;28;20050;-88
2021/04/17 08:14:34;;;;;;;5.97;3.47;;;;;;;;;;5101379;28;20066;-88
2021/04/17 08:19:19;;;;;;;5.80;3.30;;;;;;;;;;5120993;27;20346;-88
2021/04/17 08:21:46;;;;;;;7.22;3.60;;;;;;;;;;5132222;28;20492;-90
2021/04/17 08:24:12;;;;;;;6.93;4.28;;;;;;;;;;5112184;28;20031;-90
2021/04/17 08:26:39;;;;;;;6.28;3.88;;;;;;;;;;5107047;28;20059;-89
2021/04/17 08:29:05;;;;;;;5.57;3.42;;;;;;;;;;5092585;28;20028;-89
2021/04/17 08:31:35;;;;;;;6.65;3.72;;;;;;;;;;5092466;28;20149;-89
2021/04/17 08:34:17;;;;;;;6.97;3.40;;;;;;;;;;5091980;28;20298;-89
2021/04/17 08:36:50;;;;;;;8.60;3.42;;;;;;;;;;5091895;28;20497;-90
2021/04/17 08:39:42;;;;;;;6.60;3.20;;;;;;;;;;5095222;28;20031;-89
2021/04/17 08:42:08;;;;;;;;;;;;;;;;;;5084334;28;20036;-89
2021/04/17 08:44:35;;;;;;;5.13;2.80;;;;;;;;;;5094042;28;20583;-91
2021/04/17 08:47:02;;;;;;;5.57;2.53;;;;;;;;;;5133403;28;20023;-89
2021/04/17 08:51:46;;;;;;;4.78;2.60;;;;;;;;;;5111102;27;20867;-87
2021/04/17 08:54:13;;;;;;;5.40;2.95;;;;;;;;;;5109809;28;20042;-89
2021/04/17 08:56:50;;;;;;;7.82;2.47;;;;;;;;;;5109947;28;20051;-86
2021/04/17 08:59:20;;;;;;;5.43;3.33;;;;;;;;;;5109641;28;20106;-87
2021/04/17 09:01:46;;;;;;;5.97;3.22;;;;;;;;;;5109690;28;20704;-86
2021/04/17 09:04:12;;;;;;;7.18;3.28;;;;;;;;;;5110959;28;20023;-87
2021/04/17 09:06:39;;;;;;;4.95;2.75;;;;;;;;;;5110171;28;20042;-87
2021/04/17 09:09:19;;;;;;;6.07;3.25;;;;;;;;;;5109767;28;20399;-86
2021/04/17 09:12:18;;;;;;;6.13;3.08;;;;;;;;;;5109712;28;20024;-82
2021/04/17 09:14:59;;;;;;;5.82;2.97;;;;;;;;;;5083376;28;20032;-89
2021/04/17 09:17:25;;;;;;;;;;;;;;;;;;5132986;28;20031;-90
2021/04/17 09:19:51;;;;;;;5.15;2.53;;;;;;;;;;5126020;28;19908;-87
2021/04/17 09:22:33;;;;;;;4.93;2.70;;;;;;;;;;5130096;28;20045;-90
2021/04/17 09:25:00;;;;;;;4.68;2.70;;;;;;;;;;5130530;28;20044;-91
2021/04/17 09:27:33;;;;;;;5.85;2.90;;;;;;;;;;5122618;28;20483;-89
2021/04/17 09:30:05;;;;;;;7.32;3.20;;;;;;;;;;5120370;28;20123;-89
2021/04/17 09:32:31;;;;;;;5.65;3.35;;;;;;;;;;5121404;28;20023;-86
2021/04/17 09:34:57;;;;;;;5.55;3.60;;;;;;;;;;5107541;28;20038;-86
2021/04/17 09:37:25;;;;;;;7.38;2.95;;;;;;;;;;5115011;28;20023;-86
2021/04/17 09:39:51;;;;;;;4.88;2.50;;;;;;;;;;5140351;27;20024;-86
2021/04/17 09:42:27;;;;;;;9.43;2.80;;;;;;;;;;5128731;28;20062;-86
2021/04/17 09:44:53;;;;;;;5.95;2.80;;;;;;;;;;5129172;28;20032;-86
2021/04/17 09:47:19;;;;;;;10.00;3.22;;;;;;;;;;5109785;28;20024;-85
2021/04/17 09:49:49;;;;;;;3.72;2.30;;;;;;;;;;5121269;28;20085;-85
2021/04/17 09:52:19;;;;;;;5.07;3.15;;;;;;;;;;5114521;28;20024;-85
2021/04/17 09:54:46;;;;;;;5.22;3.00;;;;;;;;;;5103742;28;20572;-85
2021/04/17 09:57:11;;;;;;;5.75;3.03;;;;;;;;;;5102686;28;20020;-85
2021/04/17 09:59:37;;;;;;;7.10;2.78;;;;;;;;;;5104529;28;20464;-85
2021/04/17 10:02:03;;;;;;;5.57;2.65;;;;;;;;;;5088865;28;20072;-85
2021/04/17 10:04:49;;;;;;;7.85;3.05;;;;;;;;;;5094686;28;20082;-85
2021/04/17 10:07:18;;;;;;;4.32;2.80;;;;;;;;;;5089170;28;20107;-85
2021/04/17 10:09:57;;;;;;;5.50;2.80;;;;;;;;;;5086435;28;20078;-86
2021/04/17 10:12:23;;;;;;;5.18;2.80;;;;;;;;;;5086305;28;20111;-85
2021/04/17 10:14:48;;;;;;;6.15;3.05;;;;;;;;;;5088097;28;20024;-85
2021/04/17 10:17:14;;;;;;;5.07;3.05;;;;;;;;;;5085243;28;20115;-85
2021/04/17 10:19:40;;;;;;;5.22;2.60;;;;;;;;;;5083870;28;20408;-85
2021/04/17 10:22:07;;;;;;;5.78;2.97;;;;;;;;;;5090207;28;20027;-85
2021/04/17 10:24:37;;;;;;;5.65;3.20;;;;;;;;;;5098142;28;20016;-86
2021/04/17 10:27:09;;;;;;;11.82;3.97;;;;;;;;;;5087748;28;20108;-86
2021/04/17 10:29:38;;;;;;;5.28;3.13;;;;;;;;;;5090637;28;19908;-86
2021/04/17 10:32:11;;;;;;;7.38;3.15;;;;;;;;;;5088334;28;20040;-86
2021/04/17 10:34:37;;;;;;;6.53;3.20;;;;;;;;;;5086306;28;20104;-85
2021/04/17 10:37:05;;;;;;;7.60;3.45;;;;;;;;;;5111602;28;20098;-86
2021/04/17 10:39:31;;;;;;;8.68;6.25;;;;;;;;;;5094521;28;20020;-88
2021/04/17 10:42:01;;;;;;;8.43;6.07;;;;;;;;;;5094453;28;20111;-86
2021/04/17 10:44:27;;;;;;;5.22;3.45;;;;;;;;;;5093911;28;20035;-86
2021/04/17 10:46:57;;;;;;;10.05;6.82;;;;;;;;;;5100410;28;20019;-87
2021/04/17 10:49:30;;;;;;;12.07;6.82;;;;;;;;;;5091752;28;20031;-86
2021/04/17 10:51:56;;;;;;;11.00;7.07;;;;;;;;;;5098868;28;20093;-87
2021/04/17 10:54:23;;;;;;;8.30;4.57;;;;;;;;;;5086849;28;20017;-86
2021/04/17 10:57:04;;;;;;;7.85;4.38;;;;;;;;;;5092058;28;20418;-86
2021/04/17 10:59:49;;;;;;;12.25;3.58;;;;;;;;;;5098735;27;20040;-86
2021/04/17 11:02:15;;;;;;;17.58;9.43;;;;;;;;;;5087233;28;20060;-86
2021/04/17 11:04:45;;;;;;;5.97;3.80;;;;;;;;;;5095209;28;20433;-86
2021/04/17 11:07:10;;;;;;;5.97;2.78;;;;;;;;;;5084696;28;20035;-86
2021/04/17 11:09:44;;;;;;;6.70;2.40;;;;;;;;;;5091760;28;20043;-86
2021/04/17 11:12:12;;;;;;;4.22;2.40;;;;;;;;;;5094843;28;20024;-86
2021/04/17 11:14:38;;;;;;;7.97;2.88;;;;;;;;;;5090514;28;20081;-86
2021/04/17 11:17:10;;;;;;;6.15;3.15;;;;;;;;;;5093993;28;20023;-86
2021/04/17 11:19:37;;;;;;;8.02;3.25;;;;;;;;;;5074878;28;20020;-86
2021/04/17 11:22:11;;;;;;;5.35;2.72;;;;;;;;;;5103364;28;20031;-86
2021/04/17 11:24:38;;;;;;;4.90;2.58;;;;;;;;;;5104642;28;20492;-86
2021/04/17 11:27:04;;;;;;;5.20;2.97;;;;;;;;;;5094881;28;20031;-86
2021/04/17 11:29:29;;;;;;;6.22;2.88;;;;;;;;;;5079917;28;20439;-86
2021/04/17 11:31:55;;;;;;;6.03;2.72;;;;;;;;;;5090499;28;20078;-87
2021/04/17 11:34:21;;;;;;;4.32;2.58;;;;;;;;;;5080844;28;20514;-86
2021/04/17 11:36:52;;;;;;;5.53;2.67;;;;;;;;;;5097670;28;20012;-87
2021/04/17 11:39:18;;;;;;;;;;;;;;;;;;5096128;28;20522;-87
2021/04/17 11:41:44;;;;;;;6.00;2.13;;;;;;;;;;5098059;28;19907;-86
2021/04/17 11:44:11;;;;;;;4.28;2.45;;;;;;;;;;5092477;28;20047;-86
2021/04/17 11:46:37;;;;;;;5.05;2.05;;;;;;;;;;5084229;28;20431;-87
2021/04/17 11:49:03;;;;;;;3.58;2.20;;;;;;;;;;5082461;28;20016;-86
2021/04/17 11:51:28;;;;;;;5.25;2.55;;;;;;;;;;5097329;28;20472;-86
2021/04/17 11:53:54;;;;;;;4.20;1.83;;;;;;;;;;5096005;28;20020;-87
2021/04/17 11:56:20;;;;;;;3.80;2.40;;;;;;;;;;5086699;28;20473;-87
2021/04/17 11:58:48;;;;;;;4.00;2.67;;;;;;;;;;5094166;28;20411;-87
2021/04/17 12:01:18;;;;;;;4.18;2.70;;;;;;;;;;5100250;28;20025;-86
2021/04/17 12:08:21;;;;;;;4.78;2.45;;;;;;;;;;5076001;28;20394;-86
2021/04/17 12:10:47;;;;;;;5.13;2.17;;;;;;;;;;5030228;28;20034;-85
2021/04/17 12:13:13;;;;;;;5.55;2.15;;;;;;;;;;5020443;28;20068;-86
2021/04/17 12:15:42;;;;;;;4.00;1.98;;;;;;;;;;5043676;28;20021;-87
2021/04/17 12:18:09;;;;;;;8.25;2.67;;;;;;;;;;5033056;28;20028;-87
2021/04/17 12:20:35;;;;;;;4.15;2.03;;;;;;;;;;5036214;28;20026;-87
2021/04/17 12:23:00;;;;;;;5.45;2.15;;;;;;;;;;5044323;28;20042;-87
2021/04/17 12:25:26;;;;;;;5.03;2.25;;;;;;;;;;5045013;28;20397;-86
2021/04/17 12:27:55;;;;;;;8.00;2.88;;;;;;;;;;5030021;28;20022;-87
2021/04/17 12:30:21;;;;;;;4.65;2.30;;;;;;;;;;5038015;28;20037;-87
2021/04/17 12:32:47;;;;;;;4.75;2.63;;;;;;;;;;5045534;28;20086;-87
2021/04/17 12:35:14;;;;;;;7.88;2.47;;;;;;;;;;5047727;28;20465;-86
2021/04/17 12:37:40;;;;;;;4.50;2.10;;;;;;;;;;5039740;28;20518;-86
2021/04/17 12:40:08;;;;;;;4.97;2.05;;;;;;;;;;5028984;28;20053;-87
2021/04/17 12:42:33;;;;;;;3.92;2.05;;;;;;;;;;5024580;28;20481;-86
2021/04/17 12:44:59;;;;;;;5.40;2.30;;;;;;;;;;5023464;28;20032;-87
2021/04/17 12:47:26;;;;;;;3.33;1.80;;;;;;;;;;5030063;28;20029;-87
2021/04/17 12:49:52;;;;;;;5.85;2.78;;;;;;;;;;5014198;28;20077;-86
2021/04/17 12:52:18;;;;;;;4.75;2.10;;;;;;;;;;5026763;28;20042;-87
2021/04/17 12:54:44;;;;;;;8.23;2.50;;;;;;;;;;5043405;23;20095;-79
2021/04/17 12:57:10;;;;;;;4.78;2.25;;;;;;;;;;5030946;28;20057;-78
2021/04/17 12:59:36;;;;;;;4.47;2.53;;;;;;;;;;5028980;28;20481;-77
2021/04/17 13:02:02;;;;;;;5.97;2.38;;;;;;;;;;5027035;28;20397;-78
2021/04/17 13:04:27;;;;;;;4.32;2.00;;;;;;;;;;5037470;28;20560;-78
2021/04/17 13:06:53;;;;;;;3.85;2.35;;;;;;;;;;5047476;28;20441;-79
2021/04/17 13:09:19;;;;;;;4.90;2.28;;;;;;;;;;5047315;28;20021;-78
2021/04/17 13:11:44;;;;;;;4.03;1.85;;;;;;;;;;5045770;28;20033;-78
2021/04/17 13:14:10;;;;;;;4.32;2.25;;;;;;;;;;5047217;28;20025;-78
2021/04/17 13:16:36;;;;;;;3.63;1.70;;;;;;;;;;5047229;28;20109;-77
2021/04/17 13:19:02;;;;;;;4.38;2.00;;;;;;;;;;5037325;28;20409;-78
2021/04/17 13:21:27;;;;;;;3.45;1.80;;;;;;;;;;5030303;28;20029;-78
2021/04/17 13:23:53;;;;;;;7.13;2.08;;;;;;;;;;5032544;28;20026;-78
2021/04/17 13:26:19;;;;;;;4.30;2.05;;;;;;;;;;5033333;28;20112;-79
2021/04/17 13:28:45;;;;;;;6.60;2.38;;;;;;;;;;5031309;28;20503;-79
2021/04/17 13:31:11;;;;;;;4.68;2.45;;;;;;;;;;5029584;28;20060;-79
2021/04/17 13:33:36;;;;;;;5.50;2.35;;;;;;;;;;5032713;28;20018;-78
2021/04/17 13:36:03;;;;;;;5.15;2.30;;;;;;;;;;5030792;28;20079;-79
2021/04/17 13:38:28;;;;;;;5.57;2.33;;;;;;;;;;5031477;28;20037;-79
2021/04/17 13:40:54;;;;;;;7.93;3.78;;;;;;;;;;5032647;28;20030;-78
2021/04/17 13:43:20;;;;;;;5.38;2.42;;;;;;;;;;5032580;28;20438;-79
2021/04/17 13:45:45;;;;;;;4.95;2.25;;;;;;;;;;5033199;28;20109;-79
2021/04/17 13:48:11;;;;;;;3.55;1.92;;;;;;;;;;5031737;28;20482;-79
2021/04/17 13:50:37;;;;;;;16.55;6.43;;;;;;;;;;5032556;28;20089;-79
2021/04/17 13:53:02;;;;;;;11.82;5.68;;;;;;;;;;5029942;28;20444;-79
2021/04/17 13:55:28;;;;;;;7.78;2.45;;;;;;;;;;5032007;28;20566;-79
2021/04/17 13:57:54;;;;;;;5.00;1.98;;;;;;;;;;5030193;28;20024;-79
2021/04/17 14:00:20;;;;;;;5.35;2.45;;;;;;;;;;5028317;28;20442;-78
2021/04/17 14:02:46;;;;;;;5.85;2.50;;;;;;;;;;5031295;28;20040;-78
2021/04/17 14:05:12;;;;;;;7.10;2.60;;;;;;;;;;5028289;28;20112;-78
2021/04/17 14:07:37;;;;;;;5.10;2.17;;;;;;;;;;5029804;28;20033;-77
2021/04/17 14:10:04;;;;;;;6.32;1.95;;;;;;;;;;5030843;28;20025;-78
2021/04/17 14:12:29;;;;;;;5.50;2.33;;;;;;;;;;5029939;28;20048;-77
2021/04/17 14:14:55;;;;;;;4.85;1.90;;;;;;;;;;5029686;28;20035;-77
2021/04/17 14:17:21;;;;;;;5.05;2.42;;;;;;;;;;5029512;28;20021;-77
2021/04/17 14:19:47;;;;;;;5.03;2.13;;;;;;;;;;5029606;28;20436;-76
2021/04/17 14:22:13;;;;;;;11.88;4.85;;;;;;;;;;5029739;28;20127;-78
2021/04/17 14:24:38;;;;;;;5.75;2.50;;;;;;;;;;5030773;28;20027;-77
2021/04/17 14:27:04;;;;;;;6.82;2.33;;;;;;;;;;5025355;28;20123;-77
2021/04/17 14:31:50;;;;;;;9.73;3.97;;;;;;;;;;5057513;28;20858;-78
2021/04/17 14:34:16;;;;;;;6.60;2.75;;;;;;;;;;5067505;28;20798;-80
2021/04/17 14:36:41;;;;;;;13.15;5.47;;;;;;;;;;5059234;28;20017;-81
2021/04/17 14:39:09;;;;;;;11.60;5.05;;;;;;;;;;5056866;28;20105;-81
2021/04/17 14:41:36;;;;;;;5.07;2.47;;;;;;;;;;5065074;28;20416;-81
2021/04/17 14:47:05;;;;;;;10.02;2.95;;;;;;;;;;5065702;28;20083;-81
2021/04/17 14:49:30;;;;;;;7.80;3.75;;;;;;;;;;5059881;28;20025;-82
2021/04/17 14:51:57;;;;;;;10.52;3.50;;;;;;;;;;5068586;28;20082;-81
2021/04/17 14:54:23;;;;;;;8.00;3.10;;;;;;;;;;5055920;28;20029;-83
2021/04/17 14:56:49;;;;;;;4.38;2.72;;;;;;;;;;5059055;28;20027;-82
2021/04/17 14:59:15;;;;;;;9.05;3.65;;;;;;;;;;5065959;28;20014;-82
2021/04/17 15:01:41;;;;;;;6.63;2.92;;;;;;;;;;5061342;28;20025;-79
2021/04/17 15:04:06;;;;;;;4.00;1.98;;;;;;;;;;5065907;28;20023;-80
2021/04/17 15:06:35;;;;;;;5.35;2.35;;;;;;;;;;5066527;28;20593;-80
2021/04/17 15:09:02;;;;;;;5.20;2.05;;;;;;;;;;5063667;28;20033;-81
2021/04/17 15:11:27;;;;;;;10.00;3.65;;;;;;;;;;5062710;28;20069;-81
2021/04/17 15:13:53;;;;;;;5.75;2.70;;;;;;;;;;5055672;28;20109;-80
2021/04/17 15:16:19;;;;;;;4.93;2.22;;;;;;;;;;5058498;28;20478;-80
2021/04/17 15:18:45;;;;;;;6.00;2.05;;;;;;;;;;5060093;28;20021;-80
2021/04/17 15:21:11;;;;;;;3.20;1.63;;;;;;;;;;5073868;28;20024;-81
2021/04/17 15:23:37;;;;;;;4.57;2.00;;;;;;;;;;5065963;28;20119;-80
2021/04/17 15:26:03;;;;;;;3.47;2.10;;;;;;;;;;5065366;28;20412;-81
2021/04/17 15:28:32;;;;;;;5.45;3.03;;;;;;;;;;5062817;28;20424;-80
2021/04/17 15:31:01;;;;;;;4.80;2.05;;;;;;;;;;5053169;28;20041;-81
2021/04/17 15:33:27;;;;;;;3.10;1.60;;;;;;;;;;5069046;28;20021;-81
2021/04/17 15:35:53;;;;;;;3.30;1.80;;;;;;;;;;5063180;28;20025;-81
2021/04/17 15:38:26;;;;;;;3.47;1.50;;;;;;;;;;5068642;28;20024;-82
2021/04/17 15:40:54;;;;;;;4.22;1.90;;;;;;;;;;5056459;28;20022;-80
2021/04/17 15:43:20;;;;;;;3.70;2.05;;;;;;;;;;5030130;28;20421;-81
2021/04/17 15:45:46;;;;;;;4.25;2.60;;;;;;;;;;5044194;28;20071;-82
2021/04/17 15:48:11;;;;;;;7.50;3.83;;;;;;;;;;5046239;28;20025;-81
2021/04/17 15:52:59;;;;;;;6.93;4.15;;;;;;;;;;5120483;27;20356;-81
2021/04/17 15:55:25;;;;;;;5.25;2.13;;;;;;;;;;5114766;28;20081;-82
2021/04/17 16:16:17;;;;;;;10.43;3.35;;;;;;;;;;5114114;28;20081;-82
2021/04/17 16:18:43;;;;;;;8.40;2.40;;;;;;;;;;5097500;28;20383;-81
2021/04/17 16:21:09;;;;;;;6.63;2.85;;;;;;;;;;5107419;28;20024;-82
2021/04/17 16:23:34;;;;;;;7.20;2.67;;;;;;;;;;5105145;28;20115;-81
2021/04/17 16:26:00;;;;;;;7.88;3.42;;;;;;;;;;5106429;28;20028;-81
2021/04/17 16:28:28;;;;;;;6.03;2.50;;;;;;;;;;5101548;28;20016;-81
2021/04/17 16:30:55;;;;;;;5.18;2.33;;;;;;;;;;5108268;28;20024;-82
2021/04/17 16:33:21;;;;;;;7.63;3.33;;;;;;;;;;5109158;28;20455;-81
2021/04/17 16:35:47;;;;;;;6.15;3.13;;;;;;;;;;5108764;28;20103;-81
2021/04/17 16:38:13;;;;;;;8.27;2.90;;;;;;;;;;5120061;28;20025;-81
2021/04/17 16:40:39;;;;;;;5.65;2.25;;;;;;;;;;5113313;28;20012;-81
2021/04/17 16:43:05;;;;;;;8.25;4.15;;;;;;;;;;5120685;28;20029;-81
2021/04/17 16:45:31;;;;;;;5.15;2.92;;;;;;;;;;5120800;28;20087;-82
2021/04/17 16:47:56;;;;;;;7.05;3.10;;;;;;;;;;5122107;28;20045;-82
2021/04/17 16:50:22;;;;;;;6.93;2.78;;;;;;;;;;5115786;28;20023;-82
2021/04/17 16:52:48;;;;;;;5.57;2.45;;;;;;;;;;5120055;28;20024;-81
2021/04/17 16:55:14;;;;;;;7.38;2.28;;;;;;;;;;5115622;28;20024;-81
2021/04/17 16:57:40;;;;;;;8.60;2.97;;;;;;;;;;5120362;28;20022;-81
2021/04/17 17:00:06;;;;;;;6.75;3.33;;;;;;;;;;5121663;28;20015;-82
2021/04/17 17:02:32;;;;;;;5.85;2.83;;;;;;;;;;5120647;28;20036;-81
2021/04/17 17:04:58;;;;;;;5.00;2.45;;;;;;;;;;5112257;28;20201;-81
2021/04/17 17:07:23;;;;;;;7.45;3.33;;;;;;;;;;5095643;28;20331;-81
2021/04/17 17:09:49;;;;;;;7.07;2.38;;;;;;;;;;5102454;28;20143;-81
2021/04/17 17:12:15;;;;;;;9.27;3.17;;;;;;;;;;5105178;28;20407;-80
2021/04/17 17:16:59;;;;;;;7.50;3.13;;;;;;;;;;5102742;28;20889;-81
2021/04/17 17:19:24;;;;;;;5.03;2.72;;;;;;;;;;5099413;28;20027;-81
2021/04/17 17:21:50;;;;;;;4.95;2.20;;;;;;;;;;5105806;28;20050;-81
2021/04/17 17:26:35;;;;;;;5.75;2.97;;;;;;;;;;5098902;28;20351;-80
2021/04/17 17:29:00;;;;;;;9.82;2.05;;;;;;;;;;5080785;28;20032;-81
2021/04/17 17:31:26;;;;;;;5.35;2.90;;;;;;;;;;5085003;28;20018;-81
2021/04/17 17:33:52;;;;;;;83.75;31.77;;;;;;;;;;5078267;28;20385;-81
2021/04/17 17:36:18;;;;;;;41.13;17.15;;;;;;;;;;5062533;28;20480;-81
2021/04/17 17:38:44;;;;;;;32.28;18.83;;;;;;;;;;5063630;28;20033;-80
2021/04/17 17:41:10;;;;;;;11.48;6.85;;;;;;;;;;5056688;28;20411;-81
2021/04/17 17:43:36;;;;;;;22.63;10.05;;;;;;;;;;5055229;28;20021;-81
2021/04/17 17:46:01;;;;;;;21.30;11.90;;;;;;;;;;5050065;28;20370;-82
2021/04/17 17:48:27;;;;;;;14.85;7.40;;;;;;;;;;5048297;28;20044;-81
2021/04/17 17:50:53;;;;;;;22.58;10.85;;;;;;;;;;5050106;28;20094;-81
2021/04/17 17:53:18;;;;;;;28.45;16.63;;;;;;;;;;5054232;28;20103;-80
2021/04/17 17:55:44;;;;;;;58.95;34.10;;;;;;;;;;5058667;28;20029;-80
2021/04/17 17:58:10;;;;;;;48.95;26.10;;;;;;;;;;5057377;28;20067;-80
2021/04/17 18:00:36;;;;;;;29.75;16.27;;;;;;;;;;5059850;28;20043;-81
2021/04/17 18:03:02;;;;;;;27.30;12.50;;;;;;;;;;5050995;28;20539;-80
2021/04/17 18:05:27;;;;;;;42.53;22.25;;;;;;;;;;5058820;28;20024;-79
2021/04/17 18:07:53;;;;;;;30.02;17.95;;;;;;;;;;5057628;28;20032;-80
2021/04/17 18:10:19;;;;;;;24.45;15.70;;;;;;;;;;5053007;28;20104;-80
2021/04/17 18:12:45;;;;;;;20.30;13.00;;;;;;;;;;5059789;28;20021;-80
2021/04/17 18:15:12;;;;;;;24.83;16.05;;;;;;;;;;5058107;28;20052;-80
2021/04/17 18:17:38;;;;;;;16.00;7.10;;;;;;;;;;5059137;28;20447;-80
2021/04/17 18:20:05;;;;;;;12.00;7.72;;;;;;;;;;5055108;28;20059;-80
2021/04/17 18:22:31;;;;;;;12.13;8.20;;;;;;;;;;5057984;28;20029;-80
2021/04/17 18:24:57;;;;;;;15.43;4.50;;;;;;;;;;5048044;28;20028;-79
2021/04/17 18:27:22;;;;;;;7.28;5.07;;;;;;;;;;5051853;28;20027;-80
2021/04/17 18:29:49;;;;;;;9.80;4.25;;;;;;;;;;5057401;28;20132;-80
2021/04/17 18:32:15;;;;;;;7.95;2.90;;;;;;;;;;5039438;28;20021;-79
2021/04/17 18:34:41;;;;;;;7.72;3.13;;;;;;;;;;5057273;28;20234;-79
2021/04/17 18:37:07;;;;;;;9.38;3.20;;;;;;;;;;5036365;28;20029;-79
2021/04/17 18:39:33;;;;;;;6.97;3.03;;;;;;;;;;5035860;28;20024;-80
2021/04/17 18:41:59;;;;;;;7.70;2.45;;;;;;;;;;5021231;28;20029;-79
2021/04/17 18:44:25;;;;;;;4.38;2.17;;;;;;;;;;5045042;28;20035;-79
2021/04/17 18:46:50;;;;;;;6.28;2.88;;;;;;;;;;5039095;28;20021;-79
2021/04/17 18:49:16;;;;;;;6.50;2.30;;;;;;;;;;5035743;28;20485;-80
2021/04/17 18:51:42;;;;;;;5.65;2.92;;;;;;;;;;5045344;28;20021;-79
2021/04/17 18:54:07;;;;;;;8.13;2.72;;;;;;;;;;5061031;22;20092;-85
2021/04/17 18:56:33;;;;;;;10.55;3.65;;;;;;;;;;5015461;28;20459;-85
2021/04/17 18:58:59;;;;;;;5.68;2.70;;;;;;;;;;5015211;28;20112;-85
2021/04/17 19:01:24;;;;;;;6.10;3.08;;;;;;;;;;5015253;28;20144;-84
2021/04/17 19:03:50;;;;;;;7.68;2.75;;;;;;;;;;5015931;28;20032;-84
2021/04/17 19:06:16;;;;;;;5.18;2.35;;;;;;;;;;5026703;28;20021;-84
2021/04/17 19:08:42;;;;;;;4.28;2.20;;;;;;;;;;5045056;28;20018;-84
2021/04/17 19:11:07;;;;;;;7.13;2.20;;;;;;;;;;5050616;28;20104;-84
2021/04/17 19:13:33;;;;;;;5.50;2.38;;;;;;;;;;5033561;28;20412;-84
2021/04/17 19:15:59;;;;;;;7.82;2.90;;;;;;;;;;5029392;28;20025;-84
2021/04/17 19:18:24;;;;;;;7.50;2.30;;;;;;;;;;5034886;28;20020;-84
2021/04/17 19:20:50;;;;;;;7.50;2.85;;;;;;;;;;5052464;28;20020;-84
2021/04/17 19:23:16;;;;;;;5.40;2.53;;;;;;;;;;5034730;28;20023;-84
2021/04/17 19:25:41;;;;;;;5.20;2.88;;;;;;;;;;5052070;28;20021;-84
2021/04/17 19:28:07;;;;;;;7.20;2.58;;;;;;;;;;5052666;28;20013;-85
2021/04/17 19:30:33;;;;;;;4.65;2.72;;;;;;;;;;5048262;28;20025;-84
2021/04/17 19:33:00;;;;;;;6.18;2.65;;;;;;;;;;5052784;28;20075;-84
2021/04/17 19:35:26;;;;;;;5.38;2.20;;;;;;;;;;5052299;28;20048;-84
2021/04/17 19:37:52;;;;;;;4.72;2.90;;;;;;;;;;5029125;28;20021;-84
2021/04/17 19:40:18;;;;;;;8.05;2.88;;;;;;;;;;5049811;28;20055;-84
2021/04/17 19:42:43;;;;;;;6.00;2.55;;;;;;;;;;5034798;28;20111;-85
2021/04/17 19:45:10;;;;;;;3.92;2.40;;;;;;;;;;5049168;28;20466;-83
2021/04/17 19:47:36;;;;;;;11.23;2.88;;;;;;;;;;5033499;28;20028;-84
2021/04/17 19:50:03;;;;;;;5.78;2.40;;;;;;;;;;5051670;28;20388;-84
2021/04/17 19:52:28;;;;;;;8.60;2.80;;;;;;;;;;5052064;28;20494;-84
2021/04/17 19:54:54;;;;;;;6.45;2.42;;;;;;;;;;5033812;28;20032;-84
2021/04/17 19:57:20;;;;;;;4.13;1.80;;;;;;;;;;5043923;28;20088;-83
2021/04/17 19:59:46;;;;;;;7.50;2.80;;;;;;;;;;5035245;28;20544;-84
2021/04/17 20:02:12;;;;;;;6.50;2.78;;;;;;;;;;5034621;28;20017;-84
2021/04/17 20:04:37;;;;;;;4.60;2.55;;;;;;;;;;5028958;28;20384;-83
2021/04/17 20:07:06;;;;;;;9.10;2.63;;;;;;;;;;5034406;28;20094;-83
2021/04/17 20:09:32;;;;;;;8.02;2.92;;;;;;;;;;5052842;28;20028;-83
2021/04/17 20:11:58;;;;;;;5.88;2.08;;;;;;;;;;5033033;28;20027;-83
2021/04/17 20:14:24;;;;;;;7.63;2.75;;;;;;;;;;5023806;28;20115;-83